createdAt,value
2018-02-02T00:00:15.413Z,67.87
2018-02-02T00:01:15.417Z,67.87
2018-02-02T00:02:15.408Z,67.21
2018-02-02T00:03:15.414Z,67.21
2018-02-02T00:04:15.415Z,67.30
2018-02-02T00:05:15.417Z,66.83
2018-02-02T00:06:15.418Z,67.12
2018-02-02T00:07:15.412Z,67.21
2018-02-02T00:08:15.420Z,67.59
2018-02-02T00:09:15.414Z,67.78
2018-02-02T00:10:15.414Z,67.78
2018-02-02T00:11:15.416Z,67.59
2018-02-02T00:12:15.422Z,67.78
2018-02-02T00:13:15.417Z,67.68
2018-02-02T00:14:15.421Z,67.30
2018-02-02T00:15:15.418Z,67.02
2018-02-02T00:16:15.424Z,66.36
2018-02-02T00:17:15.426Z,66.64
2018-02-02T00:18:15.425Z,66.74
2018-02-02T00:19:15.426Z,67.30
2018-02-02T00:20:15.427Z,67.30
2018-02-02T00:21:15.420Z,67.12
2018-02-02T00:22:15.421Z,67.21
2018-02-02T00:23:15.422Z,67.30
2018-02-02T00:24:15.423Z,67.30
2018-02-02T00:25:15.424Z,67.87
2018-02-02T00:26:15.424Z,67.78
2018-02-02T00:27:15.424Z,67.59
2018-02-02T00:28:15.424Z,67.87
2018-02-02T00:29:15.425Z,68.25
2018-02-02T00:30:15.431Z,68.15
2018-02-02T00:31:15.431Z,68.06
2018-02-02T00:32:15.433Z,68.15
2018-02-02T00:33:15.429Z,67.78
2018-02-02T00:34:15.434Z,67.87
2018-02-02T00:35:15.435Z,67.68
2018-02-02T00:36:15.430Z,67.40
2018-02-02T00:37:15.431Z,67.30
2018-02-02T00:38:15.430Z,67.55
2018-02-02T00:39:15.445Z,67.59
2018-02-02T00:40:15.432Z,67.68
2018-02-02T00:41:15.438Z,67.46
2018-02-02T00:42:15.432Z,67.74
2018-02-02T00:43:15.438Z,67.74
2018-02-02T00:44:15.439Z,67.74
2018-02-02T00:45:15.442Z,68.15
2018-02-02T00:46:15.439Z,68.15
2018-02-02T00:47:15.433Z,68.31
2018-02-02T00:48:15.446Z,67.93
2018-02-02T00:49:15.434Z,68.34
2018-02-02T00:50:15.443Z,67.97
2018-02-02T00:51:15.441Z,68.63
2018-02-02T00:52:15.436Z,68.53
2018-02-02T00:53:15.443Z,68.68
2018-02-02T00:54:15.435Z,68.91
2018-02-02T00:55:15.442Z,69.48
2018-02-02T00:56:15.441Z,69.95
2018-02-02T00:57:15.439Z,70.42
2018-02-02T00:58:15.442Z,70.42
2018-02-02T00:59:15.443Z,70.04
2018-02-02T01:00:15.437Z,70.19
2018-02-02T01:01:15.437Z,70.32
2018-02-02T01:02:15.438Z,69.85
2018-02-02T01:03:15.439Z,70.14
2018-02-02T01:04:15.447Z,69.76
2018-02-02T01:05:15.445Z,69.57
2018-02-02T01:06:15.444Z,69.57
2018-02-02T01:07:15.444Z,69.67
2018-02-02T01:08:15.445Z,70.79
2018-02-02T01:09:15.440Z,70.32
2018-02-02T01:10:15.445Z,70.61
2018-02-02T01:11:15.447Z,70.14
2018-02-02T01:12:15.446Z,70.70
2018-02-02T01:13:15.442Z,70.51
2018-02-02T01:14:15.448Z,70.79
2018-02-02T01:15:15.446Z,70.32
2018-02-02T01:16:15.443Z,70.51
2018-02-02T01:17:15.450Z,69.95
2018-02-02T01:18:15.442Z,70.42
2018-02-02T01:19:15.451Z,70.61
2018-02-02T01:20:15.450Z,71.14
2018-02-02T01:21:15.450Z,70.95
2018-02-02T01:22:15.450Z,70.95
2018-02-02T01:23:15.447Z,70.95
2018-02-02T01:24:15.452Z,71.04
2018-02-02T01:25:15.446Z,71.14
2018-02-02T01:26:15.448Z,70.67
2018-02-02T01:27:15.455Z,70.48
2018-02-02T01:28:15.447Z,69.35
2018-02-02T01:29:15.448Z,69.16
2018-02-02T01:30:15.453Z,68.78
2018-02-02T01:31:15.455Z,69.16
2018-02-02T01:32:15.448Z,69.63
2018-02-02T01:33:15.449Z,70.38
2018-02-02T01:34:15.456Z,70.29
2018-02-02T01:35:15.449Z,70.38
2018-02-02T01:36:15.449Z,70.19
2018-02-02T01:37:15.451Z,70.19
2018-02-02T01:38:15.457Z,70.01
2018-02-02T01:39:15.457Z,69.82
2018-02-02T01:40:15.455Z,69.82
2018-02-02T01:41:15.457Z,69.72
2018-02-02T01:42:15.453Z,69.63
2018-02-02T01:43:15.451Z,69.63
2018-02-02T01:44:15.457Z,69.72
2018-02-02T01:45:15.453Z,69.82
2018-02-02T01:46:15.458Z,69.53
2018-02-02T01:47:15.458Z,69.91
2018-02-02T01:48:15.453Z,69.82
2018-02-02T01:49:15.460Z,70.01
2018-02-02T01:50:15.454Z,70.67
2018-02-02T01:51:15.456Z,70.67
2018-02-02T01:52:15.454Z,70.76
2018-02-02T01:53:15.460Z,70.95
2018-02-02T01:54:15.463Z,70.86
2018-02-02T01:55:15.454Z,70.76
2018-02-02T01:56:15.456Z,71.04
2018-02-02T01:57:15.464Z,71.14
2018-02-02T01:58:15.461Z,70.10
2018-02-02T01:59:15.461Z,68.68
2018-02-02T02:00:15.463Z,68.02
2018-02-02T02:01:15.457Z,67.55
2018-02-02T02:02:15.461Z,67.08
2018-02-02T02:03:15.464Z,67.08
2018-02-02T02:04:15.464Z,67.18
2018-02-02T02:05:15.458Z,66.99
2018-02-02T02:06:15.467Z,67.74
2018-02-02T02:07:15.465Z,67.08
2018-02-02T02:08:15.460Z,66.33
2018-02-02T02:09:15.459Z,65.30
2018-02-02T02:10:15.459Z,64.54
2018-02-02T02:11:15.467Z,63.50
2018-02-02T02:12:15.461Z,63.03
2018-02-02T02:13:15.466Z,63.41
2018-02-02T02:14:15.466Z,63.22
2018-02-02T02:15:15.462Z,61.99
2018-02-02T02:16:15.467Z,61.90
2018-02-02T02:17:15.467Z,62.56
2018-02-02T02:18:15.461Z,62.65
2018-02-02T02:19:15.462Z,62.65
2018-02-02T02:20:15.462Z,63.13
2018-02-02T02:21:15.464Z,63.32
2018-02-02T02:22:15.470Z,63.13
2018-02-02T02:23:15.468Z,63.03
2018-02-02T02:24:15.464Z,62.56
2018-02-02T02:25:15.470Z,62.28
2018-02-02T02:26:15.466Z,63.03
2018-02-02T02:27:15.466Z,63.22
2018-02-02T02:28:15.466Z,63.60
2018-02-02T02:29:15.468Z,62.47
2018-02-02T02:30:15.465Z,62.56
2018-02-02T02:31:15.466Z,62.47
2018-02-02T02:32:15.466Z,62.84
2018-02-02T02:33:15.471Z,62.37
2018-02-02T02:34:15.467Z,62.56
2018-02-02T02:35:15.468Z,62.47
2018-02-02T02:36:15.472Z,62.47
2018-02-02T02:37:15.475Z,62.84
2018-02-02T02:38:15.473Z,62.47
2018-02-02T02:39:15.474Z,62.47
2018-02-02T02:40:15.474Z,62.47
2018-02-02T02:41:15.475Z,62.75
2018-02-02T02:42:15.476Z,62.56
2018-02-02T02:43:15.478Z,62.56
2018-02-02T02:44:15.470Z,62.47
2018-02-02T02:45:15.477Z,62.65
2018-02-02T02:46:15.476Z,62.47
2018-02-02T02:47:15.479Z,62.56
2018-02-02T02:48:15.480Z,62.84
2018-02-02T02:49:15.475Z,62.47
2018-02-02T02:50:15.475Z,62.75
2018-02-02T02:51:15.473Z,62.47
2018-02-02T02:52:15.476Z,62.75
2018-02-02T02:53:15.475Z,63.50
2018-02-02T02:54:15.479Z,63.60
2018-02-02T02:55:15.481Z,63.50
2018-02-02T02:56:15.474Z,63.79
2018-02-02T02:57:15.475Z,63.69
2018-02-02T02:58:15.479Z,63.88
2018-02-02T02:59:15.479Z,63.79
2018-02-02T03:00:15.481Z,64.64
2018-02-02T03:01:15.484Z,65.20
2018-02-02T03:02:15.479Z,65.95
2018-02-02T03:03:15.477Z,66.52
2018-02-02T03:04:15.475Z,66.89
2018-02-02T03:05:15.481Z,67.84
2018-02-02T03:06:15.475Z,67.55
2018-02-02T03:07:15.482Z,67.36
2018-02-02T03:08:15.481Z,68.02
2018-02-02T03:09:15.480Z,67.74
2018-02-02T03:10:15.475Z,66.33
2018-02-02T03:11:15.481Z,66.05
2018-02-02T03:12:15.481Z,65.58
2018-02-02T03:13:15.479Z,65.30
2018-02-02T03:14:15.474Z,64.83
2018-02-02T03:15:15.510Z,65.01
2018-02-02T03:16:15.475Z,64.54
2018-02-02T03:17:15.484Z,64.35
2018-02-02T03:18:15.481Z,64.35
2018-02-02T03:19:15.475Z,64.26
2018-02-02T03:20:15.482Z,64.35
2018-02-02T03:21:15.477Z,63.32
2018-02-02T03:22:15.474Z,63.50
2018-02-02T03:23:15.481Z,63.32
2018-02-02T03:24:15.477Z,64.26
2018-02-02T03:25:15.483Z,63.98
2018-02-02T03:26:15.481Z,64.35
2018-02-02T03:27:15.481Z,64.26
2018-02-02T03:28:15.480Z,64.26
2018-02-02T03:29:15.483Z,63.79
2018-02-02T03:30:15.476Z,64.16
2018-02-02T03:31:15.476Z,63.60
2018-02-02T03:32:15.484Z,63.50
2018-02-02T03:33:15.477Z,63.13
2018-02-02T03:34:15.480Z,62.65
2018-02-02T03:35:15.485Z,62.65
2018-02-02T03:36:15.482Z,62.56
2018-02-02T03:37:15.476Z,63.32
2018-02-02T03:38:15.485Z,63.79
2018-02-02T03:39:15.480Z,64.26
2018-02-02T03:40:15.481Z,64.35
2018-02-02T03:41:15.482Z,64.45
2018-02-02T03:42:15.477Z,64.35
2018-02-02T03:43:15.476Z,64.64
2018-02-02T03:44:15.483Z,64.16
2018-02-02T03:45:15.482Z,64.83
2018-02-02T03:46:15.476Z,63.79
2018-02-02T03:47:15.479Z,63.79
2018-02-02T03:48:15.484Z,63.79
2018-02-02T03:49:15.483Z,63.41
2018-02-02T03:50:15.481Z,63.88
2018-02-02T03:51:15.481Z,63.60
2018-02-02T03:52:15.482Z,63.79
2018-02-02T03:53:15.476Z,63.79
2018-02-02T03:54:15.482Z,63.32
2018-02-02T03:55:15.478Z,63.41
2018-02-02T03:56:15.479Z,63.13
2018-02-02T03:57:15.482Z,62.47
2018-02-02T03:58:15.485Z,62.56
2018-02-02T03:59:15.481Z,62.18
2018-02-02T04:00:15.482Z,61.81
2018-02-02T04:01:15.485Z,62.56
2018-02-02T04:02:15.482Z,62.56
2018-02-02T04:03:15.484Z,61.99
2018-02-02T04:04:15.477Z,62.28
2018-02-02T04:05:15.482Z,61.99
2018-02-02T04:06:15.478Z,61.99
2018-02-02T04:07:15.481Z,61.90
2018-02-02T04:08:15.475Z,62.28
2018-02-02T04:09:15.484Z,61.81
2018-02-02T04:10:15.477Z,61.62
2018-02-02T04:11:15.485Z,61.24
2018-02-02T04:12:15.477Z,61.52
2018-02-02T04:13:15.478Z,61.81
2018-02-02T04:14:15.477Z,62.37
2018-02-02T04:15:15.479Z,62.09
2018-02-02T04:16:15.482Z,61.62
2018-02-02T04:17:15.482Z,61.90
2018-02-02T04:18:15.481Z,61.71
2018-02-02T04:19:15.476Z,61.81
2018-02-02T04:20:15.477Z,62.28
2018-02-02T04:21:15.477Z,62.47
2018-02-02T04:22:15.482Z,62.37
2018-02-02T04:23:15.477Z,62.37
2018-02-02T04:24:15.482Z,62.09
2018-02-02T04:25:15.484Z,62.28
2018-02-02T04:26:15.478Z,62.65
2018-02-02T04:27:15.484Z,62.28
2018-02-02T04:28:15.477Z,62.28
2018-02-02T04:29:15.477Z,62.37
2018-02-02T04:30:15.482Z,62.84
2018-02-02T04:31:15.478Z,62.75
2018-02-02T04:32:15.479Z,62.37
2018-02-02T04:33:15.478Z,62.28
2018-02-02T04:34:15.477Z,61.99
2018-02-02T04:35:15.479Z,62.09
2018-02-02T04:36:15.483Z,61.24
2018-02-02T04:37:15.483Z,60.77
2018-02-02T04:38:15.482Z,60.96
2018-02-02T04:39:15.483Z,60.77
2018-02-02T04:40:15.483Z,60.68
2018-02-02T04:41:15.478Z,60.49
2018-02-02T04:42:15.478Z,60.58
2018-02-02T04:43:15.477Z,60.86
2018-02-02T04:44:15.478Z,61.24
2018-02-02T04:45:15.484Z,61.99
2018-02-02T04:46:15.484Z,63.03
2018-02-02T04:47:15.485Z,64.35
2018-02-02T04:48:15.480Z,65.77
2018-02-02T04:49:15.480Z,66.42
2018-02-02T04:50:15.479Z,66.99
2018-02-02T04:51:15.484Z,67.18
2018-02-02T04:52:15.485Z,67.27
2018-02-02T04:53:15.479Z,67.18
2018-02-02T04:54:15.479Z,67.08
2018-02-02T04:55:15.479Z,67.46
2018-02-02T04:56:15.485Z,66.61
2018-02-02T04:57:15.478Z,66.61
2018-02-02T04:58:15.487Z,67.18
2018-02-02T04:59:15.484Z,68.31
2018-02-02T05:00:15.488Z,68.40
2018-02-02T05:01:15.481Z,68.68
2018-02-02T05:02:15.481Z,68.21
2018-02-02T05:03:15.480Z,68.50
2018-02-02T05:04:15.480Z,69.16
2018-02-02T05:05:15.480Z,69.63
2018-02-02T05:06:15.480Z,70.10
2018-02-02T05:07:15.488Z,70.38
2018-02-02T05:08:15.481Z,70.76
2018-02-02T05:09:15.487Z,70.48
2018-02-02T05:10:15.479Z,70.76
2018-02-02T05:11:15.486Z,70.57
2018-02-02T05:12:15.485Z,70.48
2018-02-02T05:13:15.488Z,70.57
2018-02-02T05:14:15.488Z,69.91
2018-02-02T05:15:15.480Z,69.16
2018-02-02T05:16:15.479Z,68.59
2018-02-02T05:17:15.483Z,68.50
2018-02-02T05:18:15.484Z,67.93
2018-02-02T05:19:15.479Z,67.18
2018-02-02T05:20:15.486Z,67.18
2018-02-02T05:21:15.486Z,66.71
2018-02-02T05:22:15.484Z,66.42
2018-02-02T05:23:15.486Z,67.36
2018-02-02T05:24:15.486Z,67.36
2018-02-02T05:25:15.481Z,67.65
2018-02-02T05:26:15.486Z,68.12
2018-02-02T05:27:15.480Z,68.50
2018-02-02T05:28:15.488Z,68.97
2018-02-02T05:29:15.480Z,69.72
2018-02-02T05:30:15.482Z,69.82
2018-02-02T05:31:15.480Z,70.48
2018-02-02T05:32:15.488Z,70.48
2018-02-02T05:33:15.486Z,69.91
2018-02-02T05:34:15.486Z,70.48
2018-02-02T05:35:15.480Z,70.57
2018-02-02T05:36:15.483Z,70.86
2018-02-02T05:37:15.486Z,71.23
2018-02-02T05:38:15.486Z,72.08
2018-02-02T05:39:15.481Z,72.36
2018-02-02T05:40:15.481Z,72.17
2018-02-02T05:41:15.489Z,72.74
2018-02-02T05:42:15.488Z,72.64
2018-02-02T05:43:15.481Z,72.74
2018-02-02T05:44:15.487Z,72.55
2018-02-02T05:45:15.488Z,72.92
2018-02-02T05:46:15.488Z,73.21
2018-02-02T05:47:15.487Z,73.21
2018-02-02T05:48:15.489Z,73.39
2018-02-02T05:49:15.484Z,73.49
2018-02-02T05:50:15.487Z,73.30
2018-02-02T05:51:15.488Z,73.68
2018-02-02T05:52:15.482Z,73.77
2018-02-02T05:53:15.487Z,73.68
2018-02-02T05:54:15.487Z,73.49
2018-02-02T05:55:15.489Z,73.68
2018-02-02T05:56:15.482Z,73.77
2018-02-02T05:57:15.482Z,73.49
2018-02-02T05:58:15.486Z,73.49
2018-02-02T05:59:15.486Z,73.58
2018-02-02T06:00:15.487Z,73.21
2018-02-02T06:01:15.488Z,73.21
2018-02-02T06:02:15.486Z,72.92
2018-02-02T06:03:15.481Z,73.49
2018-02-02T06:04:15.487Z,73.68
2018-02-02T06:05:15.488Z,73.49
2018-02-02T06:06:15.488Z,73.21
2018-02-02T06:07:15.481Z,73.39
2018-02-02T06:08:15.514Z,73.77
2018-02-02T06:09:15.481Z,73.49
2018-02-02T06:10:15.480Z,73.68
2018-02-02T06:11:15.486Z,73.30
2018-02-02T06:12:15.487Z,72.92
2018-02-02T06:13:15.488Z,72.74
2018-02-02T06:14:15.481Z,72.55
2018-02-02T06:15:15.487Z,72.92
2018-02-02T06:16:15.492Z,72.55
2018-02-02T06:17:15.485Z,72.64
2018-02-02T06:18:15.481Z,72.64
2018-02-02T06:19:15.488Z,72.74
2018-02-02T06:20:15.483Z,72.36
2018-02-02T06:21:15.487Z,72.36
2018-02-02T06:22:15.485Z,72.08
2018-02-02T06:23:15.482Z,71.80
2018-02-02T06:24:15.529Z,72.08
2018-02-02T06:25:15.494Z,71.98
2018-02-02T06:26:15.482Z,71.51
2018-02-02T06:27:15.486Z,71.70
2018-02-02T06:28:15.486Z,71.80
2018-02-02T06:29:15.480Z,73.02
2018-02-02T06:30:15.485Z,73.11
2018-02-02T06:31:15.485Z,72.64
2018-02-02T06:32:15.481Z,72.64
2018-02-02T06:33:15.482Z,72.83
2018-02-02T06:34:15.530Z,72.27
2018-02-02T06:35:15.480Z,71.42
2018-02-02T06:36:15.482Z,70.67
2018-02-02T06:37:15.488Z,70.48
2018-02-02T06:38:15.479Z,69.63
2018-02-02T06:39:15.481Z,68.87
2018-02-02T06:40:15.485Z,68.87
2018-02-02T06:41:15.485Z,67.84
2018-02-02T06:42:15.479Z,67.08
2018-02-02T06:43:15.486Z,66.52
2018-02-02T06:44:15.484Z,66.05
2018-02-02T06:45:15.480Z,66.52
2018-02-02T06:46:15.481Z,67.18
2018-02-02T06:47:15.479Z,68.02
2018-02-02T06:48:15.478Z,67.65
2018-02-02T06:49:15.484Z,67.74
2018-02-02T06:50:15.477Z,67.84
2018-02-02T06:51:15.476Z,68.02
2018-02-02T06:52:15.477Z,67.93
2018-02-02T06:53:15.477Z,67.55
2018-02-02T06:54:15.483Z,67.55
2018-02-02T06:55:15.483Z,67.93
2018-02-02T06:56:15.482Z,69.06
2018-02-02T06:57:15.477Z,69.91
2018-02-02T06:58:15.481Z,70.29
2018-02-02T06:59:15.481Z,70.57
2018-02-02T07:00:15.480Z,69.91
2018-02-02T07:01:15.480Z,70.76
2018-02-02T07:02:15.479Z,69.72
2018-02-02T07:03:15.473Z,68.97
2018-02-02T07:04:15.474Z,68.31
2018-02-02T07:05:15.472Z,67.55
2018-02-02T07:06:15.475Z,67.46
2018-02-02T07:07:15.477Z,67.65
2018-02-02T07:08:15.477Z,67.55
2018-02-02T07:09:15.475Z,68.02
2018-02-02T07:10:15.476Z,66.80
2018-02-02T07:11:15.475Z,66.80
2018-02-02T07:12:15.468Z,66.99
2018-02-02T07:13:15.467Z,66.61
2018-02-02T07:14:15.472Z,66.71
2018-02-02T07:15:15.470Z,65.86
2018-02-02T07:16:15.472Z,66.05
2018-02-02T07:17:15.473Z,65.95
2018-02-02T07:18:15.465Z,65.95
2018-02-02T07:19:15.471Z,65.58
2018-02-02T07:20:15.468Z,65.67
2018-02-02T07:21:15.470Z,65.67
2018-02-02T07:22:15.465Z,65.86
2018-02-02T07:23:15.470Z,66.05
2018-02-02T07:24:15.468Z,65.39
2018-02-02T07:25:15.469Z,65.86
2018-02-02T07:26:15.463Z,66.33
2018-02-02T07:27:15.462Z,65.95
2018-02-02T07:28:15.461Z,65.86
2018-02-02T07:29:15.463Z,65.77
2018-02-02T07:30:15.461Z,65.67
2018-02-02T07:31:15.461Z,65.58
2018-02-02T07:32:15.460Z,65.86
2018-02-02T07:33:15.460Z,67.18
2018-02-02T07:34:15.460Z,67.74
2018-02-02T07:35:15.465Z,68.02
2018-02-02T07:36:15.459Z,68.21
2018-02-02T07:37:15.459Z,69.25
2018-02-02T07:38:15.463Z,70.01
2018-02-02T07:39:15.462Z,70.76
2018-02-02T07:40:15.464Z,70.48
2018-02-02T07:41:15.463Z,70.29
2018-02-02T07:42:15.462Z,69.35
2018-02-02T07:43:15.456Z,68.78
2018-02-02T07:44:15.461Z,68.59
2018-02-02T07:45:15.457Z,68.02
2018-02-02T07:46:15.461Z,67.74
2018-02-02T07:47:15.460Z,67.27
2018-02-02T07:48:15.462Z,66.14
2018-02-02T07:49:15.455Z,66.42
2018-02-02T07:50:15.459Z,65.95
2018-02-02T07:51:15.462Z,65.77
2018-02-02T07:52:15.459Z,65.67
2018-02-02T07:53:15.455Z,65.77
2018-02-02T07:54:15.461Z,66.24
2018-02-02T07:55:15.461Z,66.71
2018-02-02T07:56:15.459Z,66.61
2018-02-02T07:57:15.453Z,66.52
2018-02-02T07:58:15.454Z,66.71
2018-02-02T07:59:15.459Z,66.42
2018-02-02T08:00:15.513Z,65.95
2018-02-02T08:01:15.463Z,66.14
2018-02-02T08:02:15.451Z,66.14
2018-02-02T08:03:15.458Z,66.14
2018-02-02T08:04:15.450Z,66.24
2018-02-02T08:05:15.462Z,66.33
2018-02-02T08:06:15.469Z,66.52
2018-02-02T08:07:15.462Z,65.86
2018-02-02T08:08:15.456Z,65.86
2018-02-02T08:09:15.455Z,65.86
2018-02-02T08:10:15.459Z,66.05
2018-02-02T08:11:15.449Z,66.80
2018-02-02T08:12:15.454Z,67.08
2018-02-02T08:13:15.455Z,67.65
2018-02-02T08:14:15.453Z,67.93
2018-02-02T08:15:15.456Z,67.65
2018-02-02T08:16:15.454Z,67.27
2018-02-02T08:17:15.448Z,67.55
2018-02-02T08:18:15.451Z,67.27
2018-02-02T08:19:15.452Z,67.08
2018-02-02T08:20:15.452Z,66.89
2018-02-02T08:21:15.452Z,67.18
2018-02-02T08:22:15.446Z,66.99
2018-02-02T08:23:15.451Z,67.18
2018-02-02T08:24:15.450Z,67.18
2018-02-02T08:25:15.451Z,67.27
2018-02-02T08:26:15.452Z,66.33
2018-02-02T08:27:15.454Z,65.89
2018-02-02T08:28:15.445Z,64.86
2018-02-02T08:29:15.452Z,64.20
2018-02-02T08:30:15.452Z,63.73
2018-02-02T08:31:15.445Z,64.39
2018-02-02T08:32:15.455Z,63.54
2018-02-02T08:33:15.446Z,63.82
2018-02-02T08:34:15.450Z,63.54
2018-02-02T08:35:15.445Z,63.91
2018-02-02T08:36:15.451Z,63.16
2018-02-02T08:37:15.446Z,62.50
2018-02-02T08:38:15.446Z,62.12
2018-02-02T08:39:15.447Z,61.74
2018-02-02T08:40:15.453Z,61.36
2018-02-02T08:41:15.455Z,60.42
2018-02-02T08:42:15.455Z,58.92
2018-02-02T08:43:15.453Z,58.92
2018-02-02T08:44:15.454Z,57.88
2018-02-02T08:45:15.456Z,57.60
2018-02-02T08:46:15.456Z,56.46
2018-02-02T08:47:15.456Z,56.75
2018-02-02T08:48:15.457Z,57.22
2018-02-02T08:49:15.459Z,58.16
2018-02-02T08:50:15.453Z,58.63
2018-02-02T08:51:15.454Z,58.95
2018-02-02T08:52:15.461Z,59.04
2018-02-02T08:53:15.456Z,58.76
2018-02-02T08:54:15.463Z,58.76
2018-02-02T08:55:15.463Z,57.81
2018-02-02T08:56:15.460Z,57.53
2018-02-02T08:57:15.463Z,56.30
2018-02-02T08:58:15.468Z,56.02
2018-02-02T08:59:15.468Z,57.25
2018-02-02T09:00:15.465Z,57.15
2018-02-02T09:01:15.466Z,56.59
2018-02-02T09:02:15.468Z,56.68
2018-02-02T09:03:15.473Z,58.66
2018-02-02T09:04:15.476Z,60.36
2018-02-02T09:05:15.472Z,60.93
2018-02-02T09:06:15.480Z,60.55
2018-02-02T09:07:15.480Z,61.68
2018-02-02T09:08:15.477Z,61.96
2018-02-02T09:09:15.479Z,61.77
2018-02-02T09:10:15.480Z,60.27
2018-02-02T09:11:15.482Z,59.51
2018-02-02T09:12:15.484Z,58.79
2018-02-02T09:13:15.491Z,57.28
2018-02-02T09:14:15.490Z,55.96
2018-02-02T09:15:15.496Z,54.44
2018-02-02T09:16:15.492Z,53.97
2018-02-02T09:17:15.503Z,52.47
2018-02-02T09:18:15.498Z,52.47
2018-02-02T09:19:15.507Z,52.66
2018-02-02T09:20:15.507Z,52.56
2018-02-02T09:21:15.509Z,52.44
2018-02-02T09:22:15.510Z,52.91
2018-02-02T09:23:15.514Z,53.85
2018-02-02T09:24:15.511Z,55.55
2018-02-02T09:25:15.514Z,56.21
2018-02-02T09:26:15.516Z,55.93
2018-02-02T09:27:15.524Z,55.46
2018-02-02T09:28:15.526Z,57.62
2018-02-02T09:29:15.529Z,58.95
2018-02-02T09:30:15.527Z,59.23
2018-02-02T09:31:15.528Z,59.80
2018-02-02T09:32:15.532Z,58.85
2018-02-02T09:33:15.539Z,59.04
2018-02-02T09:34:15.535Z,59.23
2018-02-02T09:35:15.544Z,60.08
2018-02-02T09:36:15.546Z,61.21
2018-02-02T09:37:15.553Z,62.15
2018-02-02T09:38:15.545Z,62.06
2018-02-02T09:39:15.549Z,62.06
2018-02-02T09:40:15.551Z,62.34
2018-02-02T09:41:15.553Z,62.43
2018-02-02T09:42:15.556Z,61.87
2018-02-02T09:43:15.560Z,60.46
2018-02-02T09:44:15.560Z,60.74
2018-02-02T09:45:15.567Z,59.26
2018-02-02T09:46:15.564Z,58.98
2018-02-02T09:47:15.567Z,57.94
2018-02-02T09:48:15.571Z,56.52
2018-02-02T09:49:15.572Z,55.20
2018-02-02T09:50:15.582Z,54.63
2018-02-02T09:51:15.584Z,54.82
2018-02-02T09:52:15.588Z,54.57
2018-02-02T09:53:15.590Z,53.91
2018-02-02T09:54:15.593Z,53.63
2018-02-02T09:55:15.591Z,53.06
2018-02-02T09:56:15.594Z,53.34
2018-02-02T09:57:15.604Z,53.22
2018-02-02T09:58:15.599Z,53.41
2018-02-02T09:59:15.602Z,53.41
2018-02-02T10:00:15.612Z,53.13
2018-02-02T10:01:15.617Z,54.54
2018-02-02T10:02:15.615Z,55.01
2018-02-02T10:03:15.622Z,54.54
2018-02-02T10:04:15.623Z,55.39
2018-02-02T10:05:15.623Z,55.39
2018-02-02T10:06:15.626Z,56.93
2018-02-02T10:07:15.637Z,56.52
2018-02-02T10:08:15.634Z,56.52
2018-02-02T10:09:15.646Z,56.52
2018-02-02T10:10:15.641Z,56.90
2018-02-02T10:11:15.648Z,57.09
2018-02-02T10:12:15.649Z,58.03
2018-02-02T10:13:15.653Z,58.22
2018-02-02T10:14:15.657Z,58.88
2018-02-02T10:15:15.662Z,59.19
2018-02-02T10:16:15.671Z,58.72
2018-02-02T10:17:15.675Z,57.21
2018-02-02T10:18:15.677Z,57.03
2018-02-02T10:19:15.682Z,55.98
2018-02-02T10:20:15.687Z,54.85
2018-02-02T10:21:15.686Z,55.98
2018-02-02T10:22:15.695Z,56.71
2018-02-02T10:23:15.698Z,57.65
2018-02-02T10:24:15.697Z,58.69
2018-02-02T10:25:15.703Z,60.21
2018-02-02T10:26:15.709Z,59.38
2018-02-02T10:27:15.708Z,58.72
2018-02-02T10:28:15.718Z,57.59
2018-02-02T10:29:15.723Z,56.74
2018-02-02T10:30:15.728Z,56.17
2018-02-02T10:31:15.731Z,56.84
2018-02-02T10:32:15.736Z,55.80
2018-02-02T10:33:15.740Z,56.08
2018-02-02T10:34:15.744Z,55.80
2018-02-02T10:35:15.748Z,55.23
2018-02-02T10:36:15.756Z,54.28
2018-02-02T10:37:15.758Z,53.75
2018-02-02T10:38:15.761Z,52.14
2018-02-02T10:39:15.766Z,50.91
2018-02-02T10:40:15.765Z,50.32
2018-02-02T10:41:15.777Z,51.54
2018-02-02T10:42:15.775Z,54.00
2018-02-02T10:43:15.787Z,55.30
2018-02-02T10:44:15.792Z,55.89
2018-02-02T10:45:15.795Z,58.44
2018-02-02T10:46:15.793Z,58.82
2018-02-02T10:47:15.805Z,56.55
2018-02-02T10:48:15.808Z,54.94
2018-02-02T10:49:15.810Z,54.66
2018-02-02T10:50:15.820Z,54.47
2018-02-02T10:51:15.825Z,54.85
2018-02-02T10:52:15.829Z,55.42
2018-02-02T10:53:15.829Z,55.13
2018-02-02T10:54:15.833Z,56.08
2018-02-02T10:55:15.846Z,57.03
2018-02-02T10:56:15.850Z,57.21
2018-02-02T10:57:15.849Z,56.17
2018-02-02T10:58:15.873Z,53.65
2018-02-02T10:59:15.862Z,52.89
2018-02-02T11:00:15.869Z,52.04
2018-02-02T11:01:15.875Z,52.80
2018-02-02T11:02:15.874Z,52.23
2018-02-02T11:03:15.880Z,52.73
2018-02-02T11:04:15.890Z,51.60
2018-02-02T11:05:15.890Z,51.67
2018-02-02T11:06:15.900Z,51.57
2018-02-02T11:07:15.908Z,50.91
2018-02-02T11:08:15.914Z,50.27
2018-02-02T11:09:15.918Z,50.37
2018-02-02T11:10:15.922Z,49.14
2018-02-02T11:11:15.924Z,48.20
2018-02-02T11:12:15.934Z,48.39
2018-02-02T11:13:15.936Z,49.59
2018-02-02T11:14:15.940Z,50.72
2018-02-02T11:15:15.953Z,52.42
2018-02-02T11:16:15.959Z,53.46
2018-02-02T11:17:15.960Z,54.50
2018-02-02T11:18:15.970Z,53.30
2018-02-02T11:19:15.971Z,50.91
2018-02-02T11:20:15.986Z,52.14
2018-02-02T11:21:15.987Z,54.69
2018-02-02T11:22:15.989Z,55.92
2018-02-02T11:23:15.997Z,53.84
2018-02-02T11:24:16.003Z,52.89
2018-02-02T11:25:16.008Z,52.51
2018-02-02T11:26:16.014Z,52.64
2018-02-02T11:27:16.025Z,54.03
2018-02-02T11:28:16.036Z,56.36
2018-02-02T11:29:16.039Z,56.96
2018-02-02T11:30:16.048Z,56.80
2018-02-02T11:31:16.054Z,56.13
2018-02-02T11:32:16.053Z,55.29
2018-02-02T11:33:16.066Z,55.26
2018-02-02T11:34:16.065Z,55.57
2018-02-02T11:35:16.078Z,54.62
2018-02-02T11:36:16.084Z,54.62
2018-02-02T11:37:16.085Z,55.76
2018-02-02T11:38:16.094Z,56.89
2018-02-02T11:39:16.103Z,55.31
2018-02-02T11:40:16.120Z,53.58
2018-02-02T11:41:16.118Z,54.55
2018-02-02T11:42:16.123Z,51.72
2018-02-02T11:43:16.134Z,52.29
2018-02-02T11:44:16.133Z,52.10
2018-02-02T11:45:16.137Z,51.06
2018-02-02T11:46:16.149Z,50.23
2018-02-02T11:47:16.149Z,49.10
2018-02-02T11:48:16.156Z,48.74
2018-02-02T11:49:16.171Z,48.08
2018-02-02T11:50:16.176Z,47.80
2018-02-02T11:51:16.177Z,46.59
2018-02-02T11:52:16.209Z,44.51
2018-02-02T11:53:16.203Z,43.37
2018-02-02T11:54:16.200Z,42.25
2018-02-02T11:55:16.207Z,41.59
2018-02-02T11:56:16.214Z,40.64
2018-02-02T11:57:16.228Z,39.70
2018-02-02T11:58:16.230Z,40.36
2018-02-02T11:59:16.238Z,40.36
2018-02-02T12:00:16.251Z,41.12
2018-02-02T12:01:16.261Z,41.19
2018-02-02T12:02:16.267Z,41.76
2018-02-02T12:03:16.268Z,42.54
2018-02-02T12:04:16.279Z,42.54
2018-02-02T12:05:16.292Z,42.16
2018-02-02T12:06:16.298Z,42.35
2018-02-02T12:07:16.307Z,42.52
2018-02-02T12:08:16.317Z,43.08
2018-02-02T12:09:16.325Z,43.65
2018-02-02T12:10:16.332Z,42.92
2018-02-02T12:11:16.338Z,43.30
2018-02-02T12:12:16.350Z,43.20
2018-02-02T12:13:16.354Z,42.25
2018-02-02T12:14:16.364Z,41.14
2018-02-02T12:15:16.375Z,39.53
2018-02-02T12:16:16.388Z,39.05
2018-02-02T12:17:16.394Z,38.60
2018-02-02T12:18:16.398Z,37.74
2018-02-02T12:19:16.413Z,37.18
2018-02-02T12:20:16.420Z,36.70
2018-02-02T12:21:16.430Z,36.80
2018-02-02T12:22:16.438Z,36.04
2018-02-02T12:23:16.449Z,36.42
2018-02-02T12:24:16.458Z,36.04
2018-02-02T12:25:16.464Z,37.04
2018-02-02T12:26:16.477Z,39.68
2018-02-02T12:27:16.482Z,41.28
2018-02-02T12:28:16.493Z,42.16
2018-02-02T12:29:16.506Z,42.16
2018-02-02T12:30:16.515Z,40.74
2018-02-02T12:31:16.525Z,40.19
2018-02-02T12:32:16.536Z,41.89
2018-02-02T12:33:16.547Z,41.42
2018-02-02T12:34:16.555Z,40.47
2018-02-02T12:35:16.558Z,40.47
2018-02-02T12:36:16.575Z,39.54
2018-02-02T12:37:16.579Z,45.95
2018-02-02T12:38:16.594Z,49.43
2018-02-02T12:39:16.599Z,54.13
2018-02-02T12:40:16.616Z,58.63
2018-02-02T12:41:16.625Z,62.81
2018-02-02T12:42:16.635Z,64.39
2018-02-02T12:43:16.634Z,63.67
2018-02-02T12:44:16.647Z,61.49
2018-02-02T12:45:16.654Z,61.77
2018-02-02T12:46:16.668Z,60.55
2018-02-02T12:47:16.678Z,58.75
2018-02-02T12:48:16.681Z,59.10
2018-02-02T12:49:16.688Z,60.71
2018-02-02T12:50:16.701Z,61.18
2018-02-02T12:51:16.708Z,62.06
2018-02-02T12:52:16.721Z,60.58